createdAt,value
2019-02-02T00:00:59.235Z,96868.59
2019-02-02T00:02:00.793Z,96864.82
2019-02-02T00:03:02.797Z,96871.45
2019-02-02T00:04:05.182Z,96882.87
2019-02-02T00:05:07.426Z,96862.45
2019-02-02T00:06:08.741Z,96862.45
2019-02-02T00:07:10.119Z,96853.67
2019-02-02T00:08:13.719Z,96869.30
2019-02-02T00:09:15.162Z,96869.30
2019-02-02T00:10:16.705Z,96863.41
2019-02-02T00:11:18.472Z,96861.55
2019-02-02T00:12:21.206Z,96864.20
2019-02-02T00:13:22.685Z,96853.17
2019-02-02T00:14:23.907Z,96853.17
2019-02-02T00:15:25.138Z,96852.05
2019-02-02T00:16:26.468Z,96852.05
2019-02-02T00:17:28.792Z,96855.23
2019-02-02T00:18:30.076Z,96849.10
2019-02-02T00:19:32.440Z,96850.43
2019-02-02T00:20:33.769Z,96850.43
2019-02-02T00:21:36.624Z,96847.98
2019-02-02T00:22:38.205Z,96839.52
2019-02-02T00:23:39.406Z,96835.00
2019-02-02T00:24:40.718Z,96837.37
2019-02-02T00:25:42.022Z,96837.37
2019-02-02T00:26:43.201Z,96844.20
2019-02-02T00:27:44.499Z,96844.20
2019-02-02T00:28:45.857Z,96847.69
2019-02-02T00:29:47.211Z,96851.17
2019-02-02T00:30:48.463Z,96854.83
2019-02-02T00:31:49.744Z,96845.03
2019-02-02T00:32:51.475Z,96851.67
2019-02-02T00:33:52.836Z,96851.17
2019-02-02T00:34:54.015Z,96851.17
2019-02-02T00:35:55.260Z,96851.96
2019-02-02T00:36:59.075Z,96851.96
2019-02-02T00:37:59.745Z,96852.38
2019-02-02T00:39:00.925Z,96847.19
2019-02-02T00:40:05.303Z,96847.19
2019-02-02T00:41:06.511Z,96846.86
2019-02-02T00:42:08.006Z,96839.61
2019-02-02T00:43:09.189Z,96845.53
2019-02-02T00:44:10.457Z,96845.53
2019-02-02T00:45:17.253Z,96850.63
2019-02-02T00:46:18.499Z,96832.77
2019-02-02T00:47:19.815Z,96841.55
2019-02-02T00:48:21.182Z,96831.44
2019-02-02T00:49:24.011Z,96842.55
2019-02-02T00:50:25.304Z,96838.58
2019-02-02T00:51:28.317Z,96838.58
2019-02-02T00:52:29.706Z,96830.31
2019-02-02T00:53:30.937Z,96830.61
2019-02-02T00:54:32.424Z,96826.12
2019-02-02T00:55:33.868Z,96826.12
2019-02-02T00:56:36.780Z,96821.32
2019-02-02T00:57:38.048Z,96819.49
2019-02-02T00:58:39.697Z,96821.32
2019-02-02T00:59:41.005Z,96823.47
2019-02-02T01:00:42.258Z,96828.70
2019-02-02T01:01:43.520Z,96826.05
2019-02-02T01:02:44.697Z,96828.20
2019-02-02T01:03:47.490Z,96828.20
2019-02-02T01:04:48.928Z,96822.65
2019-02-02T01:05:50.222Z,96822.65
2019-02-02T01:06:51.389Z,96821.64
2019-02-02T01:07:53.045Z,96816.84
2019-02-02T01:08:54.291Z,96826.12
2019-02-02T01:09:55.550Z,96820.64
2019-02-02T01:10:57.117Z,96820.64
2019-02-02T01:11:58.486Z,96821.64
2019-02-02T01:13:01.155Z,96821.64
2019-02-02T01:14:02.731Z,96818.99
2019-02-02T01:15:07.714Z,96822.65
2019-02-02T01:16:09.336Z,96822.65
2019-02-02T01:17:10.622Z,96830.94
2019-02-02T01:18:11.862Z,96816.84
2019-02-02T01:19:13.462Z,96822.06
2019-02-02T01:20:14.965Z,96822.06
2019-02-02T01:21:16.174Z,96808.05
2019-02-02T01:22:17.812Z,96810.41
2019-02-02T01:23:18.994Z,96811.23
2019-02-02T01:24:20.390Z,96818.38
2019-02-02T01:25:21.671Z,96816.25
2019-02-02T01:26:22.960Z,96819.11
2019-02-02T01:27:24.292Z,96818.58
2019-02-02T01:28:25.564Z,96817.26
2019-02-02T01:29:27.052Z,96819.70
2019-02-02T01:30:28.490Z,96811.74
2019-02-02T01:31:29.711Z,96811.74
2019-02-02T01:32:31.368Z,96819.49
2019-02-02T01:33:32.785Z,96809.38
2019-02-02T01:34:34.062Z,96809.38
2019-02-02T01:35:35.703Z,96816.55
2019-02-02T01:36:36.958Z,96814.09
2019-02-02T01:37:39.603Z,96814.09
2019-02-02T01:38:40.857Z,96812.15
2019-02-02T01:39:44.511Z,96812.23
2019-02-02T01:40:45.746Z,96812.23
2019-02-02T01:41:47.029Z,96808.25
2019-02-02T01:42:48.541Z,96800.91
2019-02-02T01:43:49.937Z,96801.70
2019-02-02T01:44:51.186Z,96799.58
2019-02-02T01:45:52.571Z,96799.58
2019-02-02T01:46:54.082Z,96805.77
2019-02-02T01:47:55.792Z,96805.77
2019-02-02T01:48:57.176Z,96802.23
2019-02-02T01:49:58.531Z,96800.67
2019-02-02T01:50:59.781Z,96802.23
2019-02-02T01:52:01.258Z,96800.67
2019-02-02T01:53:02.766Z,96797.72
2019-02-02T01:54:04.022Z,96804.06
2019-02-02T01:55:07.453Z,96805.47
2019-02-02T01:56:09.168Z,96792.20
2019-02-02T01:57:10.523Z,96796.77
2019-02-02T01:58:16.773Z,96797.09
2019-02-02T01:59:15.478Z,96799.58
2019-02-02T02:00:19.135Z,96801.11
2019-02-02T02:01:20.432Z,96801.11
2019-02-02T02:02:21.703Z,96797.34
2019-02-02T02:03:24.390Z,96796.75
2019-02-02T02:04:25.658Z,96797.55
2019-02-02T02:05:27.148Z,96805.02
2019-02-02T02:06:28.727Z,96787.77
2019-02-02T02:07:29.990Z,96787.77
2019-02-02T02:08:31.390Z,96784.99
2019-02-02T02:09:32.847Z,96784.99
2019-02-02T02:10:34.212Z,96781.84
2019-02-02T02:11:35.685Z,96777.53
2019-02-02T02:12:37.170Z,96779.19
2019-02-02T02:13:38.411Z,96778.97
2019-02-02T02:14:39.761Z,96783.78
2019-02-02T02:15:40.994Z,96778.47
2019-02-02T02:16:42.421Z,96774.78
2019-02-02T02:17:44.182Z,96765.78
2019-02-02T02:18:45.425Z,96781.12
2019-02-02T02:19:46.841Z,96781.34
2019-02-02T02:20:48.133Z,96780.51
2019-02-02T02:21:49.509Z,96780.51
2019-02-02T02:22:50.870Z,96766.63
2019-02-02T02:23:52.112Z,96765.59
2019-02-02T02:24:53.581Z,96757.62
2019-02-02T02:25:55.179Z,96759.98
2019-02-02T02:26:56.463Z,96754.01
2019-02-02T02:27:57.862Z,96762.85
2019-02-02T02:28:59.343Z,96767.16
2019-02-02T02:30:00.591Z,96766.41
2019-02-02T02:31:01.973Z,96765.08
2019-02-02T02:32:03.496Z,96778.86
2019-02-02T02:33:05.108Z,96780.72
2019-02-02T02:34:06.635Z,96770.89
2019-02-02T02:35:08.215Z,96770.89
2019-02-02T02:36:10.519Z,96770.81
2019-02-02T02:37:11.875Z,96758.87
2019-02-02T02:38:14.836Z,96782.75
2019-02-02T02:39:16.208Z,96782.46
2019-02-02T02:40:22.749Z,96777.45
2019-02-02T02:41:24.064Z,96791.25
2019-02-02T02:42:25.392Z,96783.50
2019-02-02T02:43:27.055Z,96784.82
2019-02-02T02:44:28.440Z,96783.00
2019-02-02T02:45:29.902Z,96783.00
2019-02-02T02:46:31.337Z,96783.70
2019-02-02T02:47:32.571Z,96793.61
2019-02-02T02:48:34.139Z,96786.15
2019-02-02T02:49:35.532Z,96785.65
2019-02-02T02:50:36.950Z,96791.25
2019-02-02T02:51:39.350Z,96788.59
2019-02-02T02:52:40.683Z,96779.31
2019-02-02T02:53:42.265Z,96775.03
2019-02-02T02:54:43.457Z,96775.03
2019-02-02T02:55:44.985Z,96771.64
2019-02-02T02:56:46.274Z,96770.02
2019-02-02T02:57:47.514Z,96764.42
2019-02-02T02:58:50.467Z,96774.00
2019-02-02T02:59:51.716Z,96765.83
2019-02-02T03:00:52.915Z,96764.17
2019-02-02T03:01:54.212Z,96758.08
2019-02-02T03:02:56.017Z,96765.21
2019-02-02T03:03:57.276Z,96769.72
2019-02-02T03:04:58.539Z,96772.38
2019-02-02T03:06:00.082Z,96777.98
2019-02-02T03:07:01.364Z,96790.72
2019-02-02T03:08:02.853Z,96790.72
2019-02-02T03:09:06.889Z,96774.08
2019-02-02T03:10:12.137Z,96774.08
2019-02-02T03:11:13.313Z,96779.02
2019-02-02T03:12:14.567Z,96760.73
2019-02-02T03:13:15.737Z,96760.73
2019-02-02T03:14:17.227Z,96785.65
2019-02-02T03:15:18.757Z,96784.00
2019-02-02T03:16:20.184Z,96786.98
2019-02-02T03:17:21.546Z,96774.00
2019-02-02T03:18:23.035Z,96772.67
2019-02-02T03:19:26.324Z,96782.25
2019-02-02T03:20:27.620Z,96777.16
2019-02-02T03:21:29.183Z,96775.03
2019-02-02T03:22:30.701Z,96777.60
2019-02-02T03:23:32.155Z,96762.48
2019-02-02T03:24:33.549Z,96762.48
2019-02-02T03:25:34.919Z,96767.07
2019-02-02T03:26:36.168Z,96780.63
2019-02-02T03:27:37.351Z,96776.36
2019-02-02T03:28:38.658Z,96757.78
2019-02-02T03:29:39.891Z,96757.78
2019-02-02T03:30:41.132Z,96770.52
2019-02-02T03:31:42.551Z,96748.49
2019-02-02T03:32:43.894Z,96763.09
2019-02-02T03:33:45.114Z,96755.42
2019-02-02T03:34:46.408Z,96754.39
2019-02-02T03:35:47.844Z,96772.75
2019-02-02T03:36:49.230Z,96756.00
2019-02-02T03:37:51.188Z,96758.37
2019-02-02T03:38:52.615Z,96752.98
2019-02-02T03:39:53.814Z,96762.34
2019-02-02T03:40:55.167Z,96763.38
2019-02-02T03:41:56.420Z,96749.91
2019-02-02T03:42:57.835Z,96755.50
2019-02-02T03:43:59.118Z,96746.22
2019-02-02T03:45:01.482Z,96749.66
2019-02-02T03:46:02.836Z,96760.10
2019-02-02T03:47:04.182Z,96745.00
2019-02-02T03:48:05.390Z,96741.02
2019-02-02T03:49:06.698Z,96745.50
2019-02-02T03:50:09.108Z,96743.34
2019-02-02T03:51:10.325Z,96753.97
2019-02-02T03:52:13.557Z,96742.84
2019-02-02T03:53:15.090Z,96740.08
2019-02-02T03:54:16.338Z,96739.05
2019-02-02T03:55:17.657Z,96738.87
2019-02-02T03:56:19.185Z,96738.87
2019-02-02T03:57:20.645Z,96735.17
2019-02-02T03:58:21.986Z,96735.17
2019-02-02T03:59:23.429Z,96734.89
2019-02-02T04:00:24.741Z,96743.34
2019-02-02T04:01:26.046Z,96745.50
2019-02-02T04:02:27.263Z,96734.56
2019-02-02T04:03:28.873Z,96747.55
2019-02-02T04:04:30.139Z,96733.73
2019-02-02T04:05:31.665Z,96739.58
2019-02-02T04:06:33.272Z,96737.22
2019-02-02T04:07:34.609Z,96738.87
2019-02-02T04:08:35.905Z,96732.52
2019-02-02T04:09:37.565Z,96743.76
2019-02-02T04:10:38.976Z,96734.97
2019-02-02T04:11:43.311Z,96740.78
2019-02-02T04:12:43.767Z,96741.61
2019-02-02T04:13:45.001Z,96741.61
2019-02-02T04:14:46.599Z,96744.26
2019-02-02T04:15:47.997Z,96733.35
2019-02-02T04:16:49.219Z,96741.81
2019-02-02T04:17:50.593Z,96742.64
2019-02-02T04:18:52.237Z,96741.31
2019-02-02T04:19:53.545Z,96748.73
2019-02-02T04:20:54.920Z,96743.14
2019-02-02T04:21:56.345Z,96749.28
2019-02-02T04:22:57.750Z,96741.81
2019-02-02T04:23:59.253Z,96740.70
2019-02-02T04:25:00.688Z,96747.01
2019-02-02T04:26:01.967Z,96740.62
2019-02-02T04:27:03.295Z,96740.62
2019-02-02T04:28:04.776Z,96738.75
2019-02-02T04:29:17.301Z,96745.39
2019-02-02T04:30:17.852Z,96750.11
2019-02-02T04:31:19.498Z,96748.49
2019-02-02T04:32:20.765Z,96742.66
2019-02-02T04:33:22.452Z,96742.66
2019-02-02T04:34:23.813Z,96757.04
2019-02-02T04:35:25.150Z,96761.02
2019-02-02T04:36:26.727Z,96773.88
2019-02-02T04:37:28.028Z,96749.28
2019-02-02T04:38:31.659Z,96747.20
2019-02-02T04:39:32.954Z,96746.62
2019-02-02T04:40:34.210Z,96748.73
2019-02-02T04:41:35.866Z,96748.45
2019-02-02T04:42:37.274Z,96748.45
2019-02-02T04:43:38.548Z,96743.14
2019-02-02T04:44:40.173Z,96753.76
2019-02-02T04:45:41.650Z,96744.26
2019-02-02T04:46:42.924Z,96736.59
2019-02-02T04:47:44.442Z,96739.77
2019-02-02T04:48:47.116Z,96742.93
2019-02-02T04:49:48.384Z,96739.24
2019-02-02T04:50:49.717Z,96739.24
2019-02-02T04:51:51.112Z,96736.80
2019-02-02T04:52:52.844Z,96748.23
2019-02-02T04:53:58.018Z,96746.09
2019-02-02T04:54:58.424Z,96741.31
2019-02-02T04:56:00.781Z,96742.11
2019-02-02T04:57:02.052Z,96744.77
2019-02-02T04:58:04.313Z,96745.80
2019-02-02T04:59:05.708Z,96744.47
2019-02-02T05:00:10.733Z,96750.60
2019-02-02T05:01:12.111Z,96749.98
2019-02-02T05:02:13.479Z,96751.81
2019-02-02T05:03:14.747Z,96748.34
2019-02-02T05:04:16.607Z,96742.53
2019-02-02T05:05:17.934Z,96749.48
2019-02-02T05:06:19.143Z,96752.97
2019-02-02T05:07:20.717Z,96752.97
2019-02-02T05:08:22.119Z,96757.73
2019-02-02T05:09:23.456Z,96745.50
2019-02-02T05:10:25.207Z,96751.31
2019-02-02T05:11:26.582Z,96750.60
2019-02-02T05:12:27.775Z,96739.37
2019-02-02T05:13:29.261Z,96738.25
2019-02-02T05:14:30.735Z,96743.56
2019-02-02T05:15:31.998Z,96743.56
2019-02-02T05:16:33.225Z,96743.03
2019-02-02T05:17:34.593Z,96743.03
2019-02-02T05:18:35.776Z,96738.75
2019-02-02T05:19:37.041Z,96729.17
2019-02-02T05:20:38.279Z,96730.79
2019-02-02T05:21:39.685Z,96730.79
2019-02-02T05:22:40.870Z,96736.39
2019-02-02T05:23:42.382Z,96731.73
2019-02-02T05:24:43.575Z,96734.89
2019-02-02T05:25:44.863Z,96734.89
2019-02-02T05:26:46.044Z,96733.56
2019-02-02T05:27:47.364Z,96718.14
2019-02-02T05:28:48.698Z,96726.42
2019-02-02T05:29:50.074Z,96726.42
2019-02-02T05:30:51.739Z,96730.70
2019-02-02T05:31:53.001Z,96731.57
2019-02-02T05:32:54.212Z,96725.17
2019-02-02T05:33:55.438Z,96725.17
2019-02-02T05:34:56.732Z,96730.98
2019-02-02T05:35:58.191Z,96742.11
2019-02-02T05:37:00.504Z,96733.64
2019-02-02T05:38:03.062Z,96726.50
2019-02-02T05:39:06.093Z,96726.50
2019-02-02T05:40:10.602Z,96725.09
2019-02-02T05:41:12.141Z,96728.55
2019-02-02T05:42:13.316Z,96734.06
2019-02-02T05:43:14.692Z,96732.73
2019-02-02T05:44:16.029Z,96732.52
2019-02-02T05:45:19.246Z,96728.55
2019-02-02T05:46:20.478Z,96732.41
2019-02-02T05:47:21.731Z,96736.00
2019-02-02T05:48:23.354Z,96743.14
2019-02-02T05:49:24.712Z,96733.35
2019-02-02T05:50:25.949Z,96739.98
2019-02-02T05:51:27.371Z,96740.28
2019-02-02T05:52:28.627Z,96742.93
2019-02-02T05:53:29.979Z,96745.58
2019-02-02T05:54:31.119Z,96745.58
2019-02-02T05:55:32.426Z,96746.91
2019-02-02T05:56:33.787Z,96748.45
2019-02-02T05:57:35.040Z,96754.58
2019-02-02T05:58:36.347Z,96754.58
2019-02-02T05:59:37.711Z,96758.56
2019-02-02T06:00:40.835Z,96760.92
2019-02-02T06:01:42.093Z,96760.39
2019-02-02T06:02:43.355Z,96762.25
2019-02-02T06:03:44.753Z,96760.60
2019-02-02T06:04:45.943Z,96760.60
2019-02-02T06:05:47.203Z,96761.72
2019-02-02T06:06:49.403Z,96761.72
2019-02-02T06:07:51.195Z,96763.58
2019-02-02T06:08:53.281Z,96763.58
2019-02-02T06:09:54.507Z,96776.52
2019-02-02T06:10:55.799Z,96776.52
2019-02-02T06:11:57.049Z,96771.22
2019-02-02T06:12:58.319Z,96771.22
2019-02-02T06:13:59.539Z,96782.66
2019-02-02T06:15:00.857Z,96785.11
2019-02-02T06:16:02.390Z,96778.97
2019-02-02T06:17:03.703Z,96784.16
2019-02-02T06:18:05.058Z,96777.53
2019-02-02T06:19:06.738Z,96778.56
2019-02-02T06:20:12.794Z,96779.69
2019-02-02T06:21:14.030Z,96790.01
2019-02-02T06:22:15.284Z,96790.01
2019-02-02T06:23:16.756Z,96785.90
2019-02-02T06:24:17.928Z,96790.41
2019-02-02T06:25:19.296Z,96789.09
2019-02-02T06:26:20.480Z,96788.05
2019-02-02T06:27:21.972Z,96792.03
2019-02-02T06:28:23.308Z,96795.61
2019-02-02T06:29:24.566Z,96795.61
2019-02-02T06:30:25.865Z,96797.55
2019-02-02T06:31:27.296Z,96798.77
2019-02-02T06:32:30.567Z,96802.86
2019-02-02T06:33:31.808Z,96803.16
2019-02-02T06:34:33.150Z,96803.16
2019-02-02T06:35:34.612Z,96801.11
2019-02-02T06:36:35.854Z,96799.05
2019-02-02T06:37:37.530Z,96798.84
2019-02-02T06:38:38.936Z,96798.84
2019-02-02T06:39:40.221Z,96798.25
2019-02-02T06:40:41.863Z,96802.61
2019-02-02T06:41:43.216Z,96804.14
2019-02-02T06:42:44.626Z,96794.86
2019-02-02T06:43:46.226Z,96795.59
2019-02-02T06:44:47.682Z,96795.59
2019-02-02T06:45:48.988Z,96790.70
2019-02-02T06:46:50.499Z,96793.06
2019-02-02T06:47:52.882Z,96792.53
2019-02-02T06:48:54.383Z,96792.53
2019-02-02T06:49:55.694Z,96798.67
2019-02-02T06:50:57.131Z,96796.09
2019-02-02T06:51:58.596Z,96807.01
2019-02-02T06:53:00.526Z,96813.14
2019-02-02T06:54:02.179Z,96813.14
2019-02-02T06:55:06.418Z,96810.78
2019-02-02T06:56:07.621Z,96817.20
2019-02-02T06:57:08.928Z,96812.11
2019-02-02T06:58:10.189Z,96819.04
2019-02-02T06:59:11.719Z,96822.44
2019-02-02T07:00:16.505Z,96817.42
2019-02-02T07:01:17.779Z,96816.67
2019-02-02T07:02:19.019Z,96828.33
2019-02-02T07:03:20.473Z,96832.23
2019-02-02T07:04:22.304Z,96834.80
2019-02-02T07:05:24.669Z,96840.19
2019-02-02T07:06:26.165Z,96843.80
2019-02-02T07:07:27.798Z,96840.72
2019-02-02T07:08:29.085Z,96839.60
2019-02-02T07:09:30.276Z,96839.60
2019-02-02T07:10:31.534Z,96845.53
2019-02-02T07:11:32.921Z,96850.14
2019-02-02T07:12:34.176Z,96850.14
2019-02-02T07:13:36.094Z,96845.48
2019-02-02T07:14:37.530Z,96847.22
2019-02-02T07:15:38.734Z,96859.16
2019-02-02T07:16:40.095Z,96857.34
2019-02-02T07:17:41.634Z,96861.61
2019-02-02T07:18:42.884Z,96861.61
2019-02-02T07:19:44.530Z,96849.84
2019-02-02T07:20:45.898Z,96854.65
2019-02-02T07:21:47.122Z,96854.41
2019-02-02T07:22:48.530Z,96854.41
2019-02-02T07:23:49.962Z,96847.48
2019-02-02T07:24:51.540Z,96852.79
2019-02-02T07:25:52.990Z,96853.00
2019-02-02T07:26:54.676Z,96843.70
2019-02-02T07:27:55.923Z,96843.70
2019-02-02T07:28:57.540Z,96846.62
2019-02-02T07:29:58.886Z,96847.50
2019-02-02T07:31:00.219Z,96847.50
2019-02-02T07:32:01.636Z,96848.49
2019-02-02T07:33:02.983Z,96851.36
2019-02-02T07:34:05.287Z,96852.39
2019-02-02T07:35:08.429Z,96852.39
2019-02-02T07:36:09.640Z,96837.87
2019-02-02T07:37:10.845Z,96856.45
2019-02-02T07:38:12.405Z,96854.63
2019-02-02T07:39:13.782Z,96854.63
2019-02-02T07:40:16.331Z,96849.82
2019-02-02T07:41:17.521Z,96857.28
2019-02-02T07:42:19.133Z,96850.86
2019-02-02T07:43:20.604Z,96849.61
2019-02-02T07:44:21.834Z,96857.58
2019-02-02T07:45:28.171Z,96846.66
2019-02-02T07:46:29.488Z,96846.66
2019-02-02T07:47:30.891Z,96857.28
2019-02-02T07:48:32.137Z,96847.33
2019-02-02T07:49:33.332Z,96850.48
2019-02-02T07:50:34.557Z,96850.48
2019-02-02T07:51:36.036Z,96848.13
2019-02-02T07:52:37.402Z,96848.13
2019-02-02T07:53:38.732Z,96854.55
2019-02-02T07:54:40.284Z,96853.14
2019-02-02T07:55:41.800Z,96853.14
2019-02-02T07:56:43.363Z,96841.35
2019-02-02T07:57:44.841Z,96845.84
2019-02-02T07:58:46.203Z,96854.55
2019-02-02T07:59:47.681Z,96845.75
2019-02-02T08:00:49.064Z,96849.23
2019-02-02T08:01:50.539Z,96849.23
2019-02-02T08:02:52.037Z,96851.36
2019-02-02T08:03:55.514Z,96852.39
2019-02-02T08:04:56.782Z,96852.39
2019-02-02T08:06:00.463Z,96844.55
2019-02-02T08:07:01.834Z,96855.49
2019-02-02T08:08:03.889Z,96843.84
2019-02-02T08:09:07.063Z,96845.37
2019-02-02T08:10:12.246Z,96851.52
2019-02-02T08:11:14.554Z,96843.96
2019-02-02T08:12:15.843Z,96842.22
2019-02-02T08:13:17.124Z,96842.22
2019-02-02T08:14:18.530Z,96848.33
2019-02-02T08:15:24.776Z,96847.08
2019-02-02T08:16:26.089Z,96846.88
2019-02-02T08:17:27.312Z,96846.05
2019-02-02T08:18:28.852Z,96846.05
2019-02-02T08:19:30.316Z,96860.36
2019-02-02T08:20:31.870Z,96867.81
2019-02-02T08:21:33.561Z,96863.84
2019-02-02T08:22:34.828Z,96866.98
2019-02-02T08:23:36.170Z,96863.52
2019-02-02T08:24:38.639Z,96861.89
2019-02-02T08:25:40.337Z,96873.34
2019-02-02T08:26:41.792Z,96863.22
2019-02-02T08:27:43.299Z,96861.89
2019-02-02T08:28:44.596Z,96861.89
2019-02-02T08:29:45.808Z,96874.22
2019-02-02T08:30:52.561Z,96871.88
2019-02-02T08:31:50.461Z,96865.55
2019-02-02T08:32:52.093Z,96865.55
2019-02-02T08:33:53.293Z,96864.34
2019-02-02T08:34:54.745Z,96879.11
2019-02-02T08:35:58.101Z,96879.11
2019-02-02T08:36:59.401Z,96875.31
2019-02-02T08:38:01.065Z,96889.29
2019-02-02T08:39:05.006Z,96884.77
2019-02-02T08:40:13.315Z,96879.91
2019-02-02T08:41:14.648Z,96890.57
2019-02-02T08:42:15.995Z,96886.21
2019-02-02T08:43:17.390Z,96886.95
2019-02-02T08:44:18.731Z,96890.94
2019-02-02T08:45:20.486Z,96887.24
2019-02-02T08:46:21.968Z,96887.24
2019-02-02T08:47:23.347Z,96878.98
2019-02-02T08:48:24.762Z,96879.70
2019-02-02T08:49:26.571Z,96882.59
2019-02-02T08:50:31.231Z,96904.63
2019-02-02T08:51:32.593Z,96904.63
2019-02-02T08:52:34.334Z,96897.20
2019-02-02T08:53:35.812Z,96887.37
2019-02-02T08:54:39.051Z,96887.37
2019-02-02T08:55:40.475Z,96884.13
2019-02-02T08:56:41.950Z,96889.73
2019-02-02T08:57:43.571Z,96892.88
2019-02-02T08:58:44.796Z,96892.88
2019-02-02T08:59:46.132Z,96903.30
2019-02-02T09:00:47.490Z,96892.09
2019-02-02T09:01:48.841Z,96892.88
2019-02-02T09:02:50.147Z,96894.54
2019-02-02T09:03:51.727Z,96905.66
2019-02-02T09:04:53.026Z,96905.66
2019-02-02T09:05:54.342Z,96896.87
2019-02-02T09:06:55.598Z,96907.28
2019-02-02T09:07:57.028Z,96900.14
2019-02-02T09:08:58.531Z,96900.14
2019-02-02T09:09:59.709Z,96895.62
2019-02-02T09:11:01.299Z,96889.28
2019-02-02T09:12:02.469Z,96889.28
2019-02-02T09:13:03.721Z,96890.84
2019-02-02T09:14:04.936Z,96903.89
2019-02-02T09:15:09.530Z,96893.59
2019-02-02T09:16:10.963Z,96885.30
2019-02-02T09:17:12.490Z,96885.30
2019-02-02T09:18:13.765Z,96891.94
2019-02-02T09:19:15.070Z,96892.97
2019-02-02T09:20:16.337Z,96890.11
2019-02-02T09:21:17.691Z,96890.11
2019-02-02T09:22:18.923Z,96895.92
2019-02-02T09:23:20.241Z,96886.63
2019-02-02T09:24:21.429Z,96886.63
2019-02-02T09:25:22.728Z,96882.23
2019-02-02T09:26:23.944Z,96890.20
2019-02-02T09:27:25.531Z,96880.90
2019-02-02T09:28:26.894Z,96884.38
2019-02-02T09:29:28.174Z,96893.14
2019-02-02T09:30:32.085Z,96891.02
2019-02-02T09:31:33.552Z,96886.21
2019-02-02T09:32:34.757Z,96883.84
2019-02-02T09:33:36.023Z,96871.90
2019-02-02T09:34:37.213Z,96869.78
2019-02-02T09:35:38.510Z,96886.21
2019-02-02T09:36:39.977Z,96879.57
2019-02-02T09:37:41.212Z,96877.66
2019-02-02T09:38:42.567Z,96877.66
2019-02-02T09:39:43.813Z,96874.27
2019-02-02T09:40:45.143Z,96878.75
2019-02-02T09:41:46.566Z,96870.70
2019-02-02T09:42:47.735Z,96882.23
2019-02-02T09:43:49.395Z,96882.23
2019-02-02T09:44:50.671Z,96883.05
2019-02-02T09:45:51.921Z,96883.05
2019-02-02T09:46:53.386Z,96886.71
2019-02-02T09:47:54.678Z,96880.98
2019-02-02T09:48:57.917Z,96874.05
2019-02-02T09:49:59.041Z,96888.45
2019-02-02T09:51:00.330Z,96888.45
2019-02-02T09:52:01.781Z,96886.59
2019-02-02T09:53:03.068Z,96882.40
2019-02-02T09:54:04.310Z,96888.00
2019-02-02T09:55:09.112Z,96879.74
2019-02-02T09:56:10.711Z,96879.74
2019-02-02T09:57:12.035Z,96887.50
2019-02-02T09:58:13.440Z,96881.95
2019-02-02T09:59:15.228Z,96882.77
2019-02-02T10:00:18.906Z,96882.98
2019-02-02T10:01:27.468Z,96883.89
2019-02-02T10:02:23.304Z,96886.02
2019-02-02T10:03:24.556Z,96882.86
2019-02-02T10:04:25.976Z,96883.89
2019-02-02T10:05:28.575Z,96883.89
2019-02-02T10:06:30.232Z,96891.95
2019-02-02T10:07:31.666Z,96887.96
2019-02-02T10:08:32.918Z,96894.39
2019-02-02T10:09:35.434Z,96887.52
2019-02-02T10:10:37.221Z,96887.52
2019-02-02T10:11:38.506Z,96884.35
2019-02-02T10:12:39.773Z,96888.63
2019-02-02T10:13:41.033Z,96894.02
2019-02-02T10:14:42.510Z,96883.11
2019-02-02T10:15:43.861Z,96886.27
2019-02-02T10:16:45.370Z,96886.27
2019-02-02T10:17:49.524Z,96899.92
2019-02-02T10:18:49.916Z,96898.47
2019-02-02T10:19:51.198Z,96898.47
2019-02-02T10:21:03.292Z,96894.44
2019-02-02T10:21:56.069Z,96894.44
2019-02-02T10:22:58.846Z,96918.22
2019-02-02T10:24:00.331Z,96894.36
2019-02-02T10:25:03.691Z,96911.63
2019-02-02T10:26:05.001Z,96892.53
2019-02-02T10:27:06.413Z,96897.64
2019-02-02T10:28:07.813Z,96899.47
2019-02-02T10:29:09.160Z,96899.47
2019-02-02T10:30:14.433Z,96899.76
2019-02-02T10:31:16.203Z,96906.19
2019-02-02T10:32:17.444Z,96906.48
2019-02-02T10:33:20.375Z,96906.48
2019-02-02T10:34:21.532Z,96892.11
2019-02-02T10:35:23.140Z,96902.00
2019-02-02T10:36:24.353Z,96913.13
2019-02-02T10:37:25.962Z,96907.02
2019-02-02T10:38:27.343Z,96907.02
2019-02-02T10:39:28.836Z,96902.58
2019-02-02T10:40:30.333Z,96904.73
2019-02-02T10:41:32.042Z,96904.73
2019-02-02T10:42:33.223Z,96907.09
2019-02-02T10:43:34.786Z,96907.18
2019-02-02T10:44:36.019Z,96908.80
2019-02-02T10:45:37.306Z,96905.94
2019-02-02T10:46:38.613Z,96907.27
2019-02-02T10:47:42.863Z,96906.14
2019-02-02T10:48:44.028Z,96912.79
2019-02-02T10:49:45.274Z,96908.80
2019-02-02T10:50:46.709Z,96909.39
2019-02-02T10:51:48.041Z,96911.54
2019-02-02T10:52:49.447Z,96909.39
2019-02-02T10:53:50.921Z,96904.28
2019-02-02T10:54:52.141Z,96904.28
2019-02-02T10:55:53.802Z,96901.63
2019-02-02T10:56:55.167Z,96901.63
2019-02-02T10:57:56.550Z,96908.34
2019-02-02T10:58:57.933Z,96910.21
2019-02-02T10:59:59.390Z,96914.70
2019-02-02T11:01:00.600Z,96915.81
2019-02-02T11:02:01.874Z,96912.66
2019-02-02T11:03:03.181Z,96908.96
2019-02-02T11:04:04.607Z,96911.70
2019-02-02T11:05:07.204Z,96906.09
2019-02-02T11:06:08.803Z,96907.64
2019-02-02T11:07:10.014Z,96903.65
2019-02-02T11:08:11.312Z,96912.66
2019-02-02T11:09:12.806Z,96905.48
2019-02-02T11:10:24.965Z,96893.31
2019-02-02T11:11:26.217Z,96892.27
2019-02-02T11:12:28.054Z,96891.16
2019-02-02T11:13:29.429Z,96887.48
2019-02-02T11:14:31.170Z,96885.84
2019-02-02T11:15:32.700Z,96885.84
2019-02-02T11:16:34.360Z,96886.78
2019-02-02T11:17:35.658Z,96880.13
2019-02-02T11:18:37.152Z,96880.13
2019-02-02T11:19:38.747Z,96886.95
2019-02-02T11:20:40.455Z,96882.26
2019-02-02T11:21:41.725Z,96884.20
2019-02-02T11:22:43.293Z,96903.09
2019-02-02T11:23:44.699Z,96887.97
2019-02-02T11:24:46.203Z,96889.80
2019-02-02T11:25:47.581Z,96883.16
2019-02-02T11:26:48.933Z,96870.45
2019-02-02T11:27:50.113Z,96890.63
2019-02-02T11:28:51.620Z,96890.63
2019-02-02T11:29:53.020Z,96879.47
2019-02-02T11:30:54.262Z,96877.92
2019-02-02T11:32:02.473Z,96875.77
2019-02-02T11:32:59.090Z,96872.82
2019-02-02T11:34:00.381Z,96876.59
2019-02-02T11:35:02.172Z,96873.11
2019-02-02T11:36:03.744Z,96864.13
2019-02-02T11:37:07.284Z,96864.13
2019-02-02T11:38:08.700Z,96876.89
2019-02-02T11:39:10.100Z,96869.45
2019-02-02T11:40:20.374Z,96877.72
2019-02-02T11:41:22.828Z,96877.72
2019-02-02T11:42:24.148Z,96869.45
2019-02-02T11:43:25.815Z,96875.27
2019-02-02T11:44:27.211Z,96868.91
2019-02-02T11:45:28.488Z,96868.91
2019-02-02T11:46:29.860Z,96864.42
2019-02-02T11:47:31.280Z,96876.59
2019-02-02T11:48:32.468Z,96876.59
2019-02-02T11:49:33.896Z,96876.59
2019-02-02T11:50:35.352Z,96879.84
2019-02-02T11:51:36.615Z,96876.38
2019-02-02T11:52:38.279Z,96869.20
2019-02-02T11:53:39.756Z,96878.51
2019-02-02T11:54:40.957Z,96874.77
2019-02-02T11:55:42.205Z,96874.77
2019-02-02T11:56:43.475Z,96876.67
2019-02-02T11:57:45.082Z,96886.77
2019-02-02T11:58:46.291Z,96879.62
2019-02-02T11:59:47.860Z,96880.95
2019-02-02T12:00:49.212Z,96873.73
2019-02-02T12:01:50.847Z,96880.38
2019-02-02T12:02:52.167Z,96880.38
2019-02-02T12:03:53.657Z,96867.38
2019-02-02T12:04:54.931Z,96861.52